^^
Saratoga-Weather Station Historical Data
Daily Summary for April 17, 2020 Units:  English    Metric   Both
Daily Weekly Monthly Yearly Custom
  High: Low: Average:
Temperature: 67.6 °F 55.9 °F 59.7 °F
Dew Point: 62.2 °F 54.5 °F 57.6 °F
Humidity: 97% 80% 93%
Wind Speed: 12mph 0mph 1.8mph
Wind Gust: 15mph - -
Wind- - SW
Pressure: 29.9 in 29.8 in -
Precipitation: 0.55 in    
Historical Graphs
 
 
Tabular Data for April 17, 2020
Time Temperature Dew Point Pressure Wind Wind Speed Wind Gust Humidity Rainfall Rate (Hourly) solar
00:02 58.5 °F 57 °F 29.9 in Calm     95% 0 in 0 W/m2
00:07 58.3 °F 56.8 °F 29.9 in Calm     95% 0 in 0 W/m2
00:12 58.3 °F 56.8 °F 29.9 in Calm     95% 0 in 0 W/m2
00:17 58.3 °F 56.8 °F 29.9 in Calm     95% 0 in 0 W/m2
00:22 58.1 °F 56.7 °F 29.9 in Calm     95% 0 in 0 W/m2
00:27 57.9 °F 56.5 °F 29.9 in Calm     95% 0 in 0 W/m2
00:32 57.9 °F 56.5 °F 29.9 in Calm     95% 0 in 0 W/m2
00:37 57.9 °F 56.5 °F 29.9 in Calm     95% 0 in 0 W/m2
00:42 57.9 °F 56.8 °F 29.9 in Calm     96% 0 in 0 W/m2
00:47 58.1 °F 56.7 °F 29.9 in Calm     95% 0 in 0 W/m2
00:52 58.1 °F 57 °F 29.9 in Calm     96% 0 in 0 W/m2
00:57 58.3 °F 57.2 °F 29.9 in Calm   1 mph 96% 0 in 0 W/m2
01:02 58.1 °F 57 °F 29.9 in Calm     96% 0 in 0 W/m2
01:07 57.9 °F 56.8 °F 29.9 in Calm   1 mph 96% 0 in 0 W/m2
01:12 57.7 °F 56.3 °F 29.9 in Calm     95% 0 in 0 W/m2
01:17 57.6 °F 56.1 °F 29.9 in Calm     95% 0 in 0 W/m2
01:22 57.4 °F 55.9 °F 29.9 in Calm     95% 0 in 0 W/m2
01:27 57.2 °F 56.1 °F 29.9 in Calm     96% 0 in 0 W/m2
01:32 57.2 °F 56.1 °F 29.9 in Calm     96% 0 in 0 W/m2
01:37 57.2 °F 56.1 °F 29.9 in Calm     96% 0 in 0 W/m2
01:42 57 °F 55.9 °F 29.9 in Calm     96% 0 in 0 W/m2
01:47 56.8 °F 55.8 °F 29.9 in Calm     96% 0 in 0 W/m2
01:52 56.8 °F 55.8 °F 29.9 in Calm     96% 0 in 0 W/m2
01:57 56.8 °F 55.8 °F 29.9 in Calm   1 mph 96% 0 in 0 W/m2
02:02 56.8 °F 55.8 °F 29.9 in Calm     96% 0 in 0 W/m2
02:07 56.8 °F 55.8 °F 29.9 in Calm   1 mph 96% 0 in 0 W/m2
02:12 56.7 °F 55.6 °F 29.9 in Calm     96% 0 in 0 W/m2
02:17 56.7 °F 55.6 °F 29.9 in Calm     96% 0 in 0 W/m2
02:22 56.5 °F 55.4 °F 29.9 in Calm     96% 0 in 0 W/m2
02:27 56.7 °F 55.6 °F 29.9 in Calm     96% 0 in 0 W/m2
02:32 56.7 °F 55.6 °F 29.9 in WNW 0.9 mph 1 mph 96% 0 in 0 W/m2
02:37 56.8 °F 55.8 °F 29.9 in WNW 0.9 mph 1 mph 96% 0 in 0 W/m2
02:43 56.8 °F 55.8 °F 29.9 in Calm     96% 0 in 0 W/m2
02:48 57 °F 55.9 °F 29.9 in Calm     96% 0 in 0 W/m2
02:53 57 °F 55.9 °F 29.9 in WNW 0.9 mph 1 mph 96% 0 in 0 W/m2
02:58 57 °F 55.9 °F 29.9 in Calm     96% 0 in 0 W/m2
03:03 57.2 °F 56.1 °F 29.9 in Calm     96% 0 in 0 W/m2
03:08 57.4 °F 56.3 °F 29.9 in Calm     96% 0 in 0 W/m2
03:13 57.4 °F 56.3 °F 29.9 in Calm     96% 0 in 0 W/m2
03:18 57.4 °F 56.3 °F 29.9 in Calm     96% 0 in 0 W/m2
03:23 57.2 °F 56.1 °F 29.9 in Calm   1 mph 96% 0 in 0 W/m2
03:28 57.2 °F 56.1 °F 29.9 in Calm     96% 0 in 0 W/m2
03:33 57.2 °F 56.1 °F 29.9 in Calm     96% 0 in 0 W/m2
03:38 57 °F 55.9 °F 29.9 in Calm     96% 0 in 0 W/m2
03:43 57 °F 55.9 °F 29.9 in Calm     96% 0 in 0 W/m2
03:48 57 °F 55.9 °F 29.9 in Calm     96% 0 in 0 W/m2
03:53 57 °F 55.9 °F 29.9 in Calm     96% 0 in 0 W/m2
03:58 57 °F 55.9 °F 29.9 in Calm     96% 0 in 0 W/m2
04:03 57 °F 56.1 °F 29.9 in WNW 0.9 mph 2 mph 97% 0 in 0 W/m2
04:08 57 °F 56.1 °F 29.9 in Calm     97% 0 in 0 W/m2
04:13 57 °F 56.1 °F 29.9 in Calm   2 mph 97% 0 in 0 W/m2
04:18 57 °F 56.1 °F 29.9 in Calm     97% 0 in 0 W/m2
04:23 57 °F 56.1 °F 29.9 in Calm     97% 0 in 0 W/m2
04:28 57 °F 56.1 °F 29.9 in Calm     97% 0 in 0 W/m2
04:33 56.8 °F 55.9 °F 29.9 in Calm   2 mph 97% 0 in 0 W/m2
04:38 56.8 °F 55.9 °F 29.9 in Calm     97% 0 in 0 W/m2
04:43 56.8 °F 55.9 °F 29.9 in Calm   2 mph 97% 0 in 0 W/m2
04:48 56.8 °F 55.9 °F 29.9 in Calm     97% 0 in 0 W/m2
04:53 56.8 °F 55.9 °F 29.9 in Calm     97% 0 in 0 W/m2
04:58 56.7 °F 55.8 °F 29.9 in Calm     97% 0 in 0 W/m2
05:03 56.7 °F 55.6 °F 29.9 in Calm     96% 0 in 0 W/m2
05:08 56.5 °F 55.4 °F 29.9 in Calm     96% 0 in 0 W/m2
05:13 56.3 °F 55.4 °F 29.9 in Calm     97% 0 in 0 W/m2
05:18 56.3 °F 55.4 °F 29.9 in Calm     97% 0 in 0 W/m2
05:23 56.1 °F 55.2 °F 29.9 in Calm     97% 0 in 0 W/m2
05:29 56.1 °F 55.2 °F 29.9 in Calm     97% 0 in 0 W/m2
05:34 56.1 °F 55.2 °F 29.9 in Calm     97% 0 in 0 W/m2
05:39 56.1 °F 55.2 °F 29.9 in Calm     97% 0 in 0 W/m2
05:44 56.3 °F 55.4 °F 29.9 in Calm     97% 0 in 5 W/m2
05:49 56.5 °F 55.6 °F 29.9 in Calm     97% 0 in 9 W/m2
05:54 56.5 °F 55.6 °F 29.9 in Calm     97% 0 in 12 W/m2
05:59 56.7 °F 55.8 °F 29.9 in Calm     97% 0 in 16 W/m2
06:04 56.7 °F 55.8 °F 29.9 in Calm     97% 0 in 25 W/m2
06:09 56.8 °F 55.9 °F 29.9 in Calm     97% 0 in 30 W/m2
06:14 56.8 °F 55.9 °F 29.9 in Calm     97% 0 in 40 W/m2
06:19 56.8 °F 55.9 °F 29.9 in Calm     97% 0 in 46 W/m2
06:24 57 °F 56.1 °F 29.9 in Calm     97% 0 in 51 W/m2
06:29 57 °F 56.1 °F 29.9 in Calm     97% 0 in 56 W/m2
06:34 57.4 °F 56.5 °F 29.9 in NNE 2 mph 2 mph 97% 0 in 65 W/m2
06:39 57.6 °F 56.7 °F 29.9 in Calm   1 mph 97% 0 in 86 W/m2
06:44 57.7 °F 56.8 °F 29.9 in Calm   1 mph 97% 0 in 104 W/m2
06:49 57.7 °F 56.8 °F 29.9 in Calm     97% 0 in 113 W/m2
06:54 58.1 °F 57.2 °F 29.9 in Calm   1 mph 97% 0 in 127 W/m2
06:59 58.3 °F 57.4 °F 29.9 in Calm     97% 0 in 132 W/m2
07:04 58.6 °F 57.7 °F 29.9 in Calm   1 mph 97% 0 in 137 W/m2
07:09 58.8 °F 57.9 °F 29.9 in ENE 0.9 mph 2 mph 97% 0 in 137 W/m2
07:14 59.2 °F 58.3 °F 29.9 in ENE 2 mph 3 mph 97% 0 in 120 W/m2
07:19 59.2 °F 58.3 °F 29.9 in NE 0.9 mph 1 mph 97% 0 in 111 W/m2
07:24 59.4 °F 58.5 °F 29.9 in NE 0.9 mph 1 mph 97% 0 in 98 W/m2
07:29 59.4 °F 58.5 °F 29.9 in Calm     97% 0 in 109 W/m2
07:34 59.5 °F 58.5 °F 29.9 in Calm   1 mph 96% 0 in 141 W/m2
07:39 59.7 °F 58.6 °F 29.9 in ESE 0.9 mph 3 mph 96% 0 in 142 W/m2
07:44 60.1 °F 59 °F 29.9 in ESE 0.9 mph 1 mph 96% 0 in 176 W/m2
07:49 60.3 °F 59.2 °F 29.9 in ESE 0.9 mph 1 mph 96% 0 in 197 W/m2
07:54 60.6 °F 59.2 °F 29.9 in Calm     95% 0 in 206 W/m2
07:59 61 °F 59.5 °F 29.9 in East 0.9 mph 2 mph 95% 0 in 265 W/m2
08:04 61.5 °F 60.1 °F 29.9 in ENE 2 mph 2 mph 95% 0 in 279 W/m2
08:09 62.1 °F 60.3 °F 29.9 in Calm   3 mph 94% 0 in 385 W/m2
08:14 62.8 °F 60.8 °F 29.9 in East 2.9 mph 3 mph 93% 0 in 353 W/m2
08:19 63.7 °F 61 °F 29.9 in Calm   2 mph 91% 0 in 369 W/m2
08:24 63.9 °F 60.6 °F 29.9 in NW 0.9 mph 2 mph 89% 0 in 297 W/m2
08:29 63.9 °F 60.3 °F 29.9 in Calm   2 mph 88% 0 in 436 W/m2
08:34 63.9 °F 60.6 °F 29.9 in Calm   1 mph 89% 0 in 413 W/m2
08:39 64.2 °F 60.3 °F 29.9 in Calm   2 mph 87% 0 in 295 W/m2
08:45 64.9 °F 61.3 °F 29.9 in NE 3 mph 3 mph 88% 0 in 487 W/m2
08:50 66 °F 61.7 °F 29.9 in Calm   2 mph 86% 0 in 223 W/m2
08:55 66.4 °F 61 °F 29.9 in ENE 0.9 mph 3 mph 83% 0 in 195 W/m2
09:00 66.2 °F 60.8 °F 29.9 in NE 0.9 mph 2 mph 83% 0 in 264 W/m2
09:05 66.4 °F 61.3 °F 29.9 in ENE 2.9 mph 3 mph 84% 0 in 320 W/m2
09:10 66.2 °F 60.8 °F 29.9 in Calm   3 mph 83% 0 in 302 W/m2
09:15 66.4 °F 61 °F 29.9 in Calm   1 mph 83% 0 in 274 W/m2
09:20 66.4 °F 60.8 °F 29.9 in Calm   3 mph 82% 0 in 258 W/m2
09:25 66.4 °F 60.8 °F 29.9 in Calm   1 mph 82% 0 in 250 W/m2
09:30 66.6 °F 61 °F 29.9 in ENE 0.9 mph 3 mph 82% 0 in 278 W/m2
09:35 66.6 °F 60.6 °F 29.9 in NE 0.9 mph 2 mph 81% 0 in 278 W/m2
09:40 66.6 °F 61 °F 29.9 in ENE 0.9 mph 1 mph 82% 0 in 332 W/m2
09:45 66.7 °F 61 °F 29.9 in ESE 2 mph 4 mph 82% 0 in 244 W/m2
09:50 66.7 °F 60.8 °F 29.9 in East 0.9 mph 3 mph 81% 0 in 306 W/m2
09:55 66.7 °F 60.8 °F 29.9 in Calm   4 mph 81% 0 in 311 W/m2
10:00 66.7 °F 60.8 °F 29.9 in Calm   1 mph 81% 0 in 276 W/m2
10:05 66.9 °F 60.6 °F 29.9 in Calm   1 mph 80% 0 in 251 W/m2
10:10 66.7 °F 60.8 °F 29.9 in ENE 0.9 mph 2 mph 81% 0 in 225 W/m2
10:15 66.7 °F 60.8 °F 29.9 in Calm   1 mph 81% 0 in 234 W/m2
10:20 66.7 °F 61 °F 29.9 in NE 0.9 mph 2 mph 82% 0 in 216 W/m2
10:25 66.7 °F 60.8 °F 29.9 in Calm   3 mph 81% 0 in 181 W/m2
10:30 66.7 °F 61 °F 29.9 in ENE 0.9 mph 1 mph 82% 0 in 200 W/m2
10:35 66.9 °F 61.2 °F 29.9 in Calm   2 mph 82% 0 in 232 W/m2
10:40 66.9 °F 61 °F 29.9 in NE 0.9 mph 1 mph 81% 0 in 269 W/m2
10:45 66.9 °F 61 °F 29.8 in NE 0.9 mph 2 mph 81% 0 in 327 W/m2
10:50 67.3 °F 61.5 °F 29.8 in Calm   3 mph 82% 0 in 320 W/m2
10:55 67.5 °F 61.7 °F 29.8 in Calm   3 mph 82% 0 in 320 W/m2
11:00 67.5 °F 61.7 °F 29.8 in Calm     82% 0 in 292 W/m2
11:05 67.6 °F 61.9 °F 29.8 in East 0.9 mph 3 mph 82% 0 in 260 W/m2
11:11 67.5 °F 61.3 °F 29.8 in ENE 2 mph 2 mph 81% 0 in 237 W/m2
11:16 67.5 °F 61.7 °F 29.8 in NNE 0.9 mph 3 mph 82% 0 in 186 W/m2
11:21 67.3 °F 61.9 °F 29.8 in SE 2 mph 2 mph 83% 0 in 190 W/m2
11:26 66.9 °F 61.5 °F 29.8 in Calm   3 mph 83% 0 in 218 W/m2
11:31 66.7 °F 61.7 °F 29.9 in NE 2.9 mph 3 mph 84% 0 in 204 W/m2
11:36 66.7 °F 62.1 °F 29.8 in Calm   5 mph 85% 0 in 193 W/m2
11:41 66.4 °F 61.7 °F 29.8 in ENE 2 mph 3 mph 85% 0 in 188 W/m2
11:46 66 °F 61.3 °F 29.8 in NE 0.9 mph 4 mph 85% 0.01 in 200 W/m2
11:51 65.8 °F 61.9 °F 29.8 in East 2 mph 3 mph 87% 0.01 in 183 W/m2
11:56 65.7 °F 62.1 °F 29.9 in Calm   3 mph 88% 0.01 in 158 W/m2
12:01 65.5 °F 61.9 °F 29.9 in ENE 0.9 mph 2 mph 88% 0.01 in 186 W/m2
12:06 65.3 °F 61.7 °F 29.9 in Calm   2 mph 88% 0.01 in 186 W/m2
12:11 65.3 °F 61.7 °F 29.9 in SE 2 mph 2 mph 88% 0.02 in 197 W/m2
12:16 65.1 °F 61.5 °F 29.9 in SE 0.9 mph 3 mph 88% 0.02 in 186 W/m2
12:21 65.1 °F 61.5 °F 29.9 in East 0.9 mph 2 mph 88% 0.02 in 186 W/m2
12:26 65.1 °F 61.5 °F 29.9 in Calm   1 mph 88% 0.02 in 202 W/m2
12:31 65.1 °F 61.5 °F 29.8 in Calm     88% 0.02 in 188 W/m2
12:36 65.5 °F 61.9 °F 29.9 in Calm     88% 0.02 in 172 W/m2
12:41 65.7 °F 62.2 °F 29.9 in Calm     89% 0.03 in 171 W/m2
12:46 65.7 °F 62.1 °F 29.9 in Calm     88% 0.02 in 163 W/m2
12:52 65.7 °F 62.1 °F 29.9 in Calm     88% 0.03 in 144 W/m2
12:57 65.7 °F 62.2 °F 29.9 in Calm   1 mph 89% 0.03 in 146 W/m2
13:02 65.1 °F 61.5 °F 29.9 in West 0.9 mph 4 mph 88% 0.04 in 125 W/m2
13:07 64.6 °F 61 °F 29.9 in WSW 2 mph 2 mph 88% 0.04 in 116 W/m2
13:12 63.9 °F 60.6 °F 29.9 in WSW 2.9 mph 6 mph 89% 0.03 in 105 W/m2
13:17 63.1 °F 59.9 °F 29.9 in SW 4.9 mph 6 mph 89% 0.03 in 111 W/m2
13:22 62.6 °F 59.4 °F 29.9 in NW 2 mph 9 mph 89% 0.04 in 113 W/m2
13:27 61.9 °F 59 °F 29.9 in West 2.9 mph 10 mph 90% 0.04 in 111 W/m2
13:32 61.3 °F 58.6 °F 29.9 in West 4 mph 5 mph 91% 0.04 in 109 W/m2
13:37 61 °F 58.3 °F 29.8 in West 2.9 mph 8 mph 91% 0.04 in 111 W/m2
13:42 60.8 °F 58.1 °F 29.8 in WNW 2 mph 10 mph 91% 0.04 in 135 W/m2
13:47 60.6 °F 57.9 °F 29.8 in West 6 mph 10 mph 91% 0.03 in 158 W/m2
13:52 60.6 °F 57.9 °F 29.8 in West 2.9 mph 7 mph 91% 0.04 in 151 W/m2
13:57 60.6 °F 58.3 °F 29.8 in WSW 4 mph 7 mph 92% 0.04 in 137 W/m2
14:02 60.6 °F 58.3 °F 29.8 in West 4 mph 8 mph 92% 0.03 in 125 W/m2
14:07 60.6 °F 58.6 °F 29.8 in West 4 mph 10 mph 93% 0.04 in 104 W/m2
14:12 60.4 °F 58.5 °F 29.8 in West 4 mph 8 mph 93% 0.04 in 95 W/m2
14:17 60.4 °F 58.5 °F 29.8 in NW 6 mph 8 mph 93% 0.04 in 91 W/m2
14:22 60.4 °F 58.5 °F 29.8 in West 2.9 mph 8 mph 93% 0.03 in 109 W/m2
14:27 60.4 °F 58.5 °F 29.8 in WSW 8.1 mph 13 mph 93% 0.03 in 120 W/m2
14:32 60.6 °F 58.6 °F 29.8 in West 4 mph 7 mph 93% 0.02 in 121 W/m2
14:37 60.6 °F 58.6 °F 29.8 in WSW 6.9 mph 14 mph 93% 0.02 in 146 W/m2
14:42 60.6 °F 58.3 °F 29.8 in WNW 8.1 mph 8 mph 92% 0.02 in 134 W/m2
14:47 61 °F 59 °F 29.8 in West 6 mph 14 mph 93% 0.02 in 179 W/m2
14:52 61 °F 59 °F 29.8 in NW 2.9 mph 10 mph 93% 0.01 in 209 W/m2
14:57 61.2 °F 59.2 °F 29.8 in West 6.9 mph 12 mph 93% 0.01 in 197 W/m2
15:02 61.3 °F 59.4 °F 29.8 in WNW 4 mph 9 mph 93% 0.02 in 130 W/m2
15:07 61.3 °F 59.4 °F 29.8 in WSW 6.9 mph 12 mph 93% 0.01 in 93 W/m2
15:12 61.2 °F 59.2 °F 29.8 in WNW 8.1 mph 13 mph 93% 0.01 in 111 W/m2
15:17 61 °F 58.6 °F 29.8 in West 6 mph 14 mph 92% 0.01 in 105 W/m2
15:22 61 °F 58.6 °F 29.8 in West 8.1 mph 12 mph 92% 0.01 in 62 W/m2
15:27 60.8 °F 58.5 °F 29.8 in West 6 mph 13 mph 92% 0.01 in 35 W/m2
15:32 60.6 °F 58.3 °F 29.8 in WNW 8.9 mph 12 mph 92% 0.01 in 42 W/m2
15:37 60.3 °F 57.9 °F 29.8 in WSW 8.9 mph 12 mph 92% 0.01 in 39 W/m2
15:42 60.1 °F 57.7 °F 29.8 in West 6 mph 11 mph 92% 0.01 in 42 W/m2
15:47 59.9 °F 57.6 °F 29.8 in WNW 8.9 mph 12 mph 92% 0.01 in 42 W/m2
15:52 59.9 °F 57.9 °F 29.8 in West 2.9 mph 11 mph 93% 0.01 in 46 W/m2
15:57 59.9 °F 57.9 °F 29.8 in West 4 mph 9 mph 93% 0.02 in 62 W/m2
16:02 59.9 °F 57.9 °F 29.8 in West 2.9 mph 8 mph 93% 0.02 in 63 W/m2
16:08 59.9 °F 57.9 °F 29.8 in NW 2 mph 8 mph 93% 0.04 in 54 W/m2
16:13 59.7 °F 57.9 °F 29.8 in West 6.9 mph 12 mph 94% 0.06 in 63 W/m2
16:18 59.7 °F 57.9 °F 29.8 in WSW 4 mph 9 mph 94% 0.07 in 46 W/m2
16:23 59.5 °F 57.7 °F 29.8 in WNW 10.1 mph 12 mph 94% 0.08 in 32 W/m2
16:28 59.4 °F 57.6 °F 29.8 in West 6.9 mph 14 mph 94% 0.09 in 47 W/m2
16:33 59 °F 57 °F 29.8 in West 10.1 mph 10 mph 93% 0.09 in 46 W/m2
16:38 58.8 °F 57 °F 29.8 in SW 12 mph 12 mph 94% 0.1 in 46 W/m2
16:43 58.6 °F 56.8 °F 29.8 in West 8.9 mph 15 mph 94% 0.13 in 63 W/m2
16:48 58.5 °F 56.7 °F 29.8 in West 6 mph 11 mph 94% 0.13 in 67 W/m2
16:53 58.5 °F 56.7 °F 29.8 in WSW 4 mph 14 mph 94% 0.14 in 74 W/m2
16:58 58.5 °F 56.7 °F 29.8 in WNW 8.9 mph 12 mph 94% 0.14 in 76 W/m2
17:03 58.5 °F 56.7 °F 29.8 in West 10.1 mph 13 mph 94% 0.13 in 79 W/m2
17:08 58.5 °F 56.7 °F 29.8 in West 11 mph 11 mph 94% 0.12 in 79 W/m2
17:13 58.5 °F 56.7 °F 29.8 in WNW 8.9 mph 9 mph 94% 0.11 in 83 W/m2
17:18 58.5 °F 56.7 °F 29.8 in West 4 mph 12 mph 94% 0.1 in 70 W/m2
17:23 58.5 °F 56.7 °F 29.8 in WNW 4 mph 13 mph 94% 0.09 in 46 W/m2
17:28 58.5 °F 56.7 °F 29.8 in WSW 4.9 mph 9 mph 94% 0.09 in 40 W/m2
17:34 58.5 °F 56.7 °F 29.8 in WSW 6.9 mph 13 mph 94% 0.09 in 42 W/m2
17:39 58.5 °F 56.7 °F 29.8 in West 8.9 mph 10 mph 94% 0.08 in 46 W/m2
17:44 58.5 °F 56.7 °F 29.8 in WSW 4 mph 13 mph 94% 0.08 in 42 W/m2
17:49 58.5 °F 56.7 °F 29.8 in WSW 4.9 mph 7 mph 94% 0.09 in 37 W/m2
17:54 58.5 °F 56.7 °F 29.9 in WNW 2 mph 4 mph 94% 0.09 in 35 W/m2
17:59 58.5 °F 56.7 °F 29.9 in NW 4 mph 5 mph 94% 0.09 in 35 W/m2
18:04 58.5 °F 56.7 °F 29.9 in WNW 2.9 mph 7 mph 94% 0.09 in 37 W/m2
18:09 58.5 °F 57 °F 29.9 in WNW 4 mph 6 mph 95% 0.11 in 35 W/m2
18:14 58.5 °F 57 °F 29.9 in WSW 4 mph 8 mph 95% 0.11 in 32 W/m2
18:19 58.5 °F 57 °F 29.9 in WSW 6 mph 9 mph 95% 0.12 in 33 W/m2
18:24 58.5 °F 57 °F 29.9 in West 6 mph 8 mph 95% 0.13 in 39 W/m2
18:29 58.5 °F 57 °F 29.9 in West 2.9 mph 6 mph 95% 0.14 in 35 W/m2
18:34 58.5 °F 57 °F 29.9 in West 2.9 mph 4 mph 95% 0.15 in 35 W/m2
18:39 58.5 °F 57 °F 29.9 in NW 0.9 mph 5 mph 95% 0.16 in 35 W/m2
18:45 58.5 °F 56.7 °F 29.9 in WNW 2.9 mph 6 mph 94% 0.16 in 37 W/m2
18:50 58.3 °F 56.5 °F 29.9 in West 4 mph 6 mph 94% 0.15 in 35 W/m2
18:55 58.3 °F 56.5 °F 29.9 in West 2.9 mph 7 mph 94% 0.14 in 37 W/m2
19:00 58.3 °F 56.5 °F 29.9 in WSW 0.9 mph 4 mph 94% 0.14 in 37 W/m2
19:05 58.3 °F 56.5 °F 29.9 in WNW 2.9 mph 7 mph 94% 0.14 in 35 W/m2
19:10 58.3 °F 56.5 °F 29.9 in West 4 mph 7 mph 94% 0.13 in 35 W/m2
19:15 58.1 °F 56.3 °F 29.9 in WNW 4 mph 7 mph 94% 0.13 in 37 W/m2
19:20 58.3 °F 56.5 °F 29.9 in WSW 2.9 mph 4 mph 94% 0.12 in 39 W/m2
19:25 58.3 °F 56.5 °F 29.8 in West 4 mph 6 mph 94% 0.1 in 40 W/m2
19:30 58.3 °F 56.8 °F 29.8 in West 2.9 mph 6 mph 95% 0.09 in 40 W/m2
19:35 58.3 °F 56.8 °F 29.8 in WNW 2.9 mph 4 mph 95% 0.09 in 39 W/m2
19:40 58.3 °F 56.8 °F 29.8 in West 2.9 mph 4 mph 95% 0.07 in 42 W/m2
19:45 58.3 °F 56.8 °F 29.8 in West 2 mph 5 mph 95% 0.07 in 44 W/m2
19:50 58.3 °F 56.8 °F 29.8 in WNW 2.9 mph 4 mph 95% 0.06 in 39 W/m2
19:55 58.3 °F 56.8 °F 29.8 in West 4 mph 4 mph 95% 0.06 in 35 W/m2
20:00 58.3 °F 56.8 °F 29.8 in WNW 2 mph 6 mph 95% 0.06 in 33 W/m2
20:05 58.1 °F 56.3 °F 29.8 in West 4 mph 4 mph 94% 0.05 in 30 W/m2
20:10 57.9 °F 56.1 °F 29.8 in WNW 0.9 mph 4 mph 94% 0.05 in 26 W/m2
20:15 57.9 °F 56.1 °F 29.8 in Calm   3 mph 94% 0.05 in 26 W/m2
20:20 57.9 °F 56.1 °F 29.9 in WNW 2.9 mph 4 mph 94% 0.04 in 26 W/m2
20:25 57.9 °F 56.1 °F 29.8 in SW 4 mph 7 mph 94% 0.03 in 26 W/m2
20:35 57.7 °F 55.9 °F 29.8 in WNW 2 mph 5 mph 94% 0.02 in 33 W/m2
20:40 57.7 °F 55.9 °F 29.8 in WSW 2 mph 2 mph 94% 0.02 in 35 W/m2
20:45 57.7 °F 55.9 °F 29.8 in WNW 4 mph 6 mph 94% 0.02 in 35 W/m2
20:50 57.7 °F 55.9 °F 29.8 in West 2 mph 5 mph 94% 0.02 in 30 W/m2
20:55 57.6 °F 55.8 °F 29.9 in West 2 mph 4 mph 94% 0.02 in 21 W/m2
21:00 57.6 °F 55.8 °F 29.9 in SW 4.9 mph 6 mph 94% 0.02 in 16 W/m2
21:05 57.6 °F 55.8 °F 29.9 in WSW 4 mph 4 mph 94% 0.02 in 11 W/m2
21:11 57.4 °F 55.6 °F 29.9 in West 2 mph 2 mph 94% 0.01 in 9 W/m2
21:16 57.4 °F 55.6 °F 29.9 in NW 2.9 mph 4 mph 94% 0.01 in 7 W/m2
21:21 57.4 °F 55.6 °F 29.9 in NW 2 mph 2 mph 94% 0.01 in 5 W/m2
21:26 57.4 °F 55.6 °F 29.9 in WSW 0.9 mph 3 mph 94% 0.01 in 5 W/m2
21:31 57.4 °F 55.6 °F 29.9 in WSW 0.9 mph 1 mph 94% 0.01 in 0 W/m2
21:36 57.2 °F 55.4 °F 29.9 in Calm   2 mph 94% 0.01 in 0 W/m2
21:41 57 °F 55.2 °F 29.9 in Calm   2 mph 94% 0.01 in 0 W/m2
21:46 56.8 °F 55.2 °F 29.9 in ESE 0.9 mph 1 mph 94% 0.01 in 0 W/m2
21:51 56.8 °F 55.4 °F 29.9 in Calm   1 mph 95% 0 in 0 W/m2
21:56 56.8 °F 55.4 °F 29.9 in Calm   1 mph 95% 0 in 0 W/m2
22:01 56.8 °F 55.2 °F 29.9 in Calm     94% 0 in 0 W/m2
22:06 56.7 °F 55.2 °F 29.9 in Calm     95% 0 in 0 W/m2
22:11 56.7 °F 55.2 °F 29.9 in Calm     95% 0 in 0 W/m2
22:16 56.7 °F 55.2 °F 29.9 in Calm     95% 0 in 0 W/m2
22:21 56.5 °F 55 °F 29.9 in Calm     95% 0 in 0 W/m2
22:26 56.5 °F 55 °F 29.9 in Calm     95% 0 in 0 W/m2
22:31 56.5 °F 55 °F 29.9 in Calm   2 mph 95% 0 in 0 W/m2
22:36 56.1 °F 54.7 °F 29.9 in West 0.9 mph 1 mph 95% 0 in 0 W/m2
22:42 56.1 °F 54.7 °F 29.9 in Calm     95% 0 in 0 W/m2
22:47 56.1 °F 54.7 °F 29.9 in Calm     95% 0 in 0 W/m2
22:52 55.9 °F 54.5 °F 29.9 in NW 0.9 mph 3 mph 95% 0 in 0 W/m2
22:57 55.9 °F 54.5 °F 29.9 in Calm     95% 0 in 0 W/m2
23:02 55.9 °F 54.5 °F 29.9 in Calm   1 mph 95% 0 in 0 W/m2
23:07 55.9 °F 54.5 °F 29.9 in Calm     95% 0 in 0 W/m2
23:12 55.9 °F 54.5 °F 29.9 in Calm     95% 0 in 0 W/m2
23:17 55.9 °F 54.5 °F 29.9 in Calm     95% 0 in 0 W/m2
23:22 55.9 °F 54.5 °F 29.9 in Calm   2 mph 95% 0 in 0 W/m2
23:32 55.9 °F 54.5 °F 29.9 in SSW 2 mph 2 mph 95% 0 in 0 W/m2
23:37 55.9 °F 54.9 °F 29.9 in WSW 0.9 mph 2 mph 96% 0 in 0 W/m2
23:42 55.9 °F 54.9 °F 29.9 in Calm   1 mph 96% 0 in 0 W/m2
23:47 55.9 °F 54.5 °F 29.9 in WSW 0.9 mph 2 mph 95% 0 in 0 W/m2
23:52 55.9 °F 54.5 °F 29.9 in Calm   2 mph 95% 0 in 0 W/m2
23:57 55.9 °F 54.9 °F 29.9 in Calm   1 mph 96% 0 in 0 W/m2
Juneau County Weather
Compliments of Weather Underground - 4 mb